createdAt,value
2019-01-03T00:00:19.063Z,0.8
2019-01-03T00:02:18.624Z,0.3
2019-01-03T00:04:19.195Z,0.8
2019-01-03T00:06:19.269Z,1
2019-01-03T00:08:18.827Z,0.6
2019-01-03T00:10:18.803Z,0.6
2019-01-03T00:12:18.400Z,1.1
2019-01-03T00:14:18.956Z,0.5
2019-01-03T00:16:19.023Z,0.8
2019-01-03T00:18:18.665Z,0.7
2019-01-03T00:20:19.255Z,1.5
2019-01-03T00:22:18.815Z,0.8
2019-01-03T00:24:18.380Z,0.9
2019-01-03T00:26:18.446Z,0.8
2019-01-03T00:28:19.049Z,0.8
2019-01-03T00:30:18.805Z,0.4
2019-01-03T00:32:18.375Z,0.6
2019-01-03T00:34:18.945Z,0.4
2019-01-03T00:36:19.029Z,0.2
2019-01-03T00:38:18.583Z,0.4
2019-01-03T00:40:18.562Z,0.7
2019-01-03T00:42:19.126Z,0.5
2019-01-03T00:44:18.675Z,0.6
2019-01-03T00:46:19.264Z,0.8
2019-01-03T00:48:18.835Z,0.6
2019-01-03T00:50:18.434Z,0.7
2019-01-03T00:52:19.003Z,0.4
2019-01-03T00:54:18.567Z,0.5
2019-01-03T00:56:19.169Z,0.5
2019-01-03T00:58:18.779Z,0.4
2019-01-03T01:00:19.376Z,0.5
2019-01-03T01:02:18.933Z,0.6
2019-01-03T01:04:18.499Z,0.3
2019-01-03T01:06:18.559Z,0.5
2019-01-03T01:08:19.132Z,0.3
2019-01-03T01:10:19.119Z,1
2019-01-03T01:12:18.684Z,0.2
2019-01-03T01:14:19.252Z,0.5
2019-01-03T01:16:19.311Z,0.4
2019-01-03T01:18:18.925Z,0.9
2019-01-03T01:20:18.518Z,0.3
2019-01-03T01:22:19.073Z,0.7
2019-01-03T01:24:18.640Z,1.4
2019-01-03T01:26:19.237Z,0.8
2019-01-03T01:28:18.805Z,0.6
2019-01-03T01:30:18.390Z,0.8
2019-01-03T01:32:18.945Z,0.5
2019-01-03T01:34:18.512Z,0.6
2019-01-03T01:36:19.133Z,0.7
2019-01-03T01:38:18.704Z,0.3
2019-01-03T01:40:18.677Z,0.8
2019-01-03T01:42:19.251Z,0.9
2019-01-03T01:44:18.833Z,0.3
2019-01-03T01:46:18.442Z,0.3
2019-01-03T01:48:19.009Z,1.2
2019-01-03T01:50:18.608Z,1
2019-01-03T01:52:19.181Z,0.6
2019-01-03T01:54:18.739Z,0.4
2019-01-03T01:56:18.816Z,0.9
2019-01-03T01:58:18.388Z,0.4
2019-01-03T02:00:18.996Z,0.8
2019-01-03T02:02:18.573Z,0.5
2019-01-03T02:04:19.161Z,0.4
2019-01-03T02:06:18.787Z,0.3
2019-01-03T02:08:19.357Z,0.4
2019-01-03T02:10:19.341Z,0.4
2019-01-03T02:12:18.926Z,0.6
2019-01-03T02:14:18.503Z,0.4
2019-01-03T02:16:18.588Z,1.2
2019-01-03T02:18:19.213Z,0.5
2019-01-03T02:20:18.809Z,0.8
2019-01-03T02:22:18.374Z,0.2
2019-01-03T02:24:18.942Z,0.9
2019-01-03T02:26:18.595Z,0.6
2019-01-03T02:28:19.178Z,0.4
2019-01-03T02:30:18.771Z,0.7
2019-01-03T02:32:19.353Z,1
2019-01-03T02:34:18.940Z,0.5
2019-01-03T02:36:18.590Z,0.6
2019-01-03T02:38:19.163Z,0.9
2019-01-03T02:40:19.159Z,0.5
2019-01-03T02:42:18.722Z,0.7
2019-01-03T02:44:19.303Z,0.6
2019-01-03T02:46:18.518Z,1
2019-01-03T02:48:19.089Z,1
2019-01-03T02:50:18.716Z,0.6
2019-01-03T02:52:19.295Z,0.7
2019-01-03T02:54:18.872Z,0.7
2019-01-03T02:56:18.961Z,0.6
2019-01-03T02:58:18.568Z,0.6
2019-01-03T03:00:19.164Z,0.6
2019-01-03T03:02:18.738Z,0.9
2019-01-03T03:04:19.316Z,0.6
2019-01-03T03:06:18.446Z,0.4
2019-01-03T03:08:19.025Z,0.2
2019-01-03T03:10:19.015Z,1
2019-01-03T03:12:18.582Z,0.8
2019-01-03T03:14:19.155Z,0.5
2019-01-03T03:16:18.794Z,0.7
2019-01-03T03:18:18.421Z,0.4
2019-01-03T03:20:19.014Z,0.4
2019-01-03T03:22:18.624Z,0.5
2019-01-03T03:24:19.202Z,0.4
2019-01-03T03:26:18.845Z,0.6
2019-01-03T03:28:18.427Z,0.3
2019-01-03T03:30:19.046Z,0.4
2019-01-03T03:32:18.650Z,0.6
2019-01-03T03:34:19.248Z,0.2
2019-01-03T03:36:19.339Z,0.4
2019-01-03T03:38:18.948Z,0.4
2019-01-03T03:40:18.968Z,1.2
2019-01-03T03:42:18.545Z,1
2019-01-03T03:44:19.114Z,0.6
2019-01-03T03:46:19.231Z,0.6
2019-01-03T03:48:18.810Z,0.3
2019-01-03T03:50:18.418Z,0.4
2019-01-03T03:52:18.984Z,0.6
2019-01-03T03:54:18.551Z,0.7
2019-01-03T03:56:18.704Z,0.4
2019-01-03T03:58:19.279Z,1.1
2019-01-03T04:00:18.877Z,0.5
2019-01-03T04:02:18.452Z,0.3
2019-01-03T04:04:19.037Z,0.2
2019-01-03T04:06:19.123Z,0.7
2019-01-03T04:08:18.714Z,0.3
2019-01-03T04:10:18.706Z,0.5
2019-01-03T04:12:19.273Z,0.5
2019-01-03T04:14:18.841Z,0.1
2019-01-03T04:16:18.972Z,0.3
2019-01-03T04:18:18.619Z,0.1
2019-01-03T04:20:19.228Z,0.8
2019-01-03T04:22:18.815Z,0.3
2019-01-03T04:24:18.393Z,0.6
2019-01-03T04:26:19.057Z,1.3
2019-01-03T04:28:18.634Z,0.2
2019-01-03T04:30:19.231Z,0.5
2019-01-03T04:32:18.811Z,1.5
2019-01-03T04:34:18.389Z,0.5
2019-01-03T04:36:19.019Z,0.3
2019-01-03T04:38:18.613Z,0.4
2019-01-03T04:40:18.612Z,0.5
2019-01-03T04:42:19.190Z,0.4
2019-01-03T04:44:18.770Z,0.3
2019-01-03T04:46:18.903Z,0.5
2019-01-03T04:48:18.472Z,1.1
2019-01-03T04:50:19.061Z,0.2
2019-01-03T04:52:18.632Z,0.3
2019-01-03T04:54:19.213Z,0.3
2019-01-03T04:56:19.354Z,0.5
2019-01-03T04:58:18.923Z,0.4
2019-01-03T05:00:18.552Z,0.6
2019-01-03T05:02:19.135Z,0.4
2019-01-03T05:04:18.717Z,0.4
2019-01-03T05:06:19.334Z,0.6
2019-01-03T05:08:18.910Z,0.8
2019-01-03T05:10:18.907Z,0.4
2019-01-03T05:12:18.487Z,0.5
2019-01-03T05:14:19.058Z,0.7
2019-01-03T05:16:19.151Z,0.1
2019-01-03T05:18:18.784Z,0.6
2019-01-03T05:20:19.385Z,0.4
2019-01-03T05:22:18.973Z,0.6
2019-01-03T05:24:18.540Z,0.5
2019-01-03T05:26:18.631Z,1
2019-01-03T05:28:19.206Z,0.5
2019-01-03T05:30:18.808Z,0.3
2019-01-03T05:32:18.382Z,0.5
2019-01-03T05:34:18.962Z,0.6
2019-01-03T05:36:19.067Z,0.4
2019-01-03T05:38:18.659Z,0.3
2019-01-03T05:40:18.655Z,0.7
2019-01-03T05:42:19.228Z,0.5
2019-01-03T05:44:18.803Z,0.3
2019-01-03T05:46:18.953Z,0.8
2019-01-03T05:48:18.524Z,0.6
2019-01-03T05:50:19.117Z,0.2
2019-01-03T05:52:18.697Z,0.3
2019-01-03T05:54:19.279Z,0.6
2019-01-03T05:56:18.901Z,0.4
2019-01-03T05:58:18.478Z,0.6
2019-01-03T06:00:19.079Z,0.2
2019-01-03T06:02:18.658Z,0.7
2019-01-03T06:04:19.238Z,0.7
2019-01-03T06:06:19.320Z,0.6
2019-01-03T06:08:18.898Z,0.4
2019-01-03T06:10:18.900Z,1.1
2019-01-03T06:12:18.479Z,0.2
2019-01-03T06:14:19.058Z,0.1
2019-01-03T06:16:18.424Z,0.3
2019-01-03T06:18:19.058Z,0.5
2019-01-03T06:20:18.656Z,1.2
2019-01-03T06:22:19.247Z,0.4
2019-01-03T06:24:18.826Z,0.7
2019-01-03T06:26:19.370Z,0.8
2019-01-03T06:28:18.936Z,0.7
2019-01-03T06:30:18.526Z,0.4
2019-01-03T06:32:19.088Z,0.5
2019-01-03T06:34:18.665Z,0.7
2019-01-03T06:36:18.781Z,0.6
2019-01-03T06:38:19.357Z,0.4
2019-01-03T06:40:19.354Z,1.1
2019-01-03T06:42:18.936Z,0.7
2019-01-03T06:44:18.511Z,0.5
2019-01-03T06:46:18.600Z,0.7
2019-01-03T06:48:20.120Z,0.4
2019-01-03T06:50:18.916Z,0.5
2019-01-03T06:52:18.481Z,0.8
2019-01-03T06:54:19.044Z,0.7
2019-01-03T06:56:18.714Z,0.9
2019-01-03T06:58:19.293Z,0.8
2019-01-03T07:00:18.895Z,0.6
2019-01-03T07:02:18.465Z,0.7
2019-01-03T07:04:19.030Z,0.5
2019-01-03T07:06:19.124Z,0.6
2019-01-03T07:08:18.708Z,0.5
2019-01-03T07:10:18.705Z,0.6
2019-01-03T07:12:19.284Z,0.6
2019-01-03T07:14:20.130Z,1
2019-01-03T07:16:19.287Z,0.7
2019-01-03T07:18:18.904Z,1.2
2019-01-03T07:20:18.493Z,0.3
2019-01-03T07:22:19.070Z,0.4
2019-01-03T07:24:18.647Z,0.4
2019-01-03T07:26:18.736Z,1.1
2019-01-03T07:28:19.301Z,0.6
2019-01-03T07:30:18.892Z,0.2
2019-01-03T07:32:18.462Z,0.3
2019-01-03T07:34:19.026Z,0.8
2019-01-03T07:36:19.111Z,0.2
2019-01-03T07:38:18.679Z,0.4
2019-01-03T07:40:18.659Z,0.6
2019-01-03T07:42:19.231Z,0.9
2019-01-03T07:44:18.801Z,1.2
2019-01-03T07:46:18.908Z,0.5
2019-01-03T07:48:18.476Z,1.1
2019-01-03T07:50:19.082Z,1.4
2019-01-03T07:52:18.655Z,0.5
2019-01-03T07:54:19.223Z,1.1
2019-01-03T07:56:19.319Z,0.6
2019-01-03T07:58:18.894Z,0.7
2019-01-03T08:00:18.487Z,0.6
2019-01-03T08:02:19.059Z,0.8
2019-01-03T08:04:18.626Z,0.4
2019-01-03T08:06:18.730Z,0.7
2019-01-03T08:08:19.302Z,0.6
2019-01-03T08:10:19.280Z,1.2
2019-01-03T08:12:18.840Z,0.6
2019-01-03T08:14:18.412Z,0.9
2019-01-03T08:16:18.512Z,0.8
2019-01-03T08:18:19.151Z,0.7
2019-01-03T08:20:18.743Z,0.7
2019-01-03T08:22:19.313Z,0.4
2019-01-03T08:24:18.877Z,0.7
2019-01-03T08:26:18.489Z,0.6
2019-01-03T08:28:19.052Z,0.2
2019-01-03T08:30:18.653Z,0.8
2019-01-03T08:32:19.225Z,0.5
2019-01-03T08:34:18.813Z,0.5
2019-01-03T08:36:18.923Z,0.7
2019-01-03T08:38:18.505Z,0.5
2019-01-03T08:40:18.503Z,0.9
2019-01-03T08:42:19.077Z,0.8
2019-01-03T08:44:18.647Z,0.4
2019-01-03T08:46:18.736Z,0.6
2019-01-03T08:48:19.317Z,0.6
2019-01-03T08:50:18.920Z,0.6
2019-01-03T08:52:18.490Z,0.4
2019-01-03T08:54:19.058Z,0.6
2019-01-03T08:56:19.160Z,0.8
2019-01-03T08:58:18.742Z,0.5
2019-01-03T09:00:19.355Z,1.1
2019-01-03T09:02:18.938Z,0.5
2019-01-03T09:04:18.533Z,0.4
2019-01-03T09:06:18.965Z,0.6
2019-01-03T09:08:18.547Z,0.3
2019-01-03T09:10:18.541Z,0.6
2019-01-03T09:12:19.117Z,0.7
2019-01-03T09:14:18.687Z,0.2
2019-01-03T09:16:19.122Z,0.5
2019-01-03T09:18:18.761Z,0.5
2019-01-03T09:20:19.403Z,0.6
2019-01-03T09:22:18.998Z,0.7
2019-01-03T09:24:18.565Z,1
2019-01-03T09:26:18.984Z,0.4
2019-01-03T09:28:18.555Z,0.7
2019-01-03T09:30:19.165Z,0.7
2019-01-03T09:32:18.752Z,0.7
2019-01-03T09:34:19.329Z,0.5
2019-01-03T09:36:18.438Z,0.6
2019-01-03T09:38:19.029Z,0.5
2019-01-03T09:40:19.040Z,0.7
2019-01-03T09:42:18.639Z,0.3
2019-01-03T09:44:19.212Z,0.6
2019-01-03T09:46:19.323Z,0.4
2019-01-03T09:48:18.903Z,0.5
2019-01-03T09:50:18.505Z,0.5
2019-01-03T09:52:19.098Z,0.7
2019-01-03T09:54:18.669Z,0.4
2019-01-03T09:56:19.315Z,0.6
2019-01-03T09:58:18.887Z,0.5
2019-01-03T10:00:18.486Z,0.5
2019-01-03T10:02:19.062Z,0.5
2019-01-03T10:04:18.642Z,0.3
2019-01-03T10:06:18.742Z,0.5
2019-01-03T10:08:19.742Z,0.8
2019-01-03T10:10:18.845Z,0.5
2019-01-03T10:12:18.425Z,0.8
2019-01-03T10:14:18.998Z,0.3
2019-01-03T10:16:18.632Z,0.6
2019-01-03T10:18:19.273Z,0.9
2019-01-03T10:20:18.887Z,0.8
2019-01-03T10:22:18.471Z,0.4
2019-01-03T10:24:19.065Z,1.3
2019-01-03T10:26:18.674Z,0.8
2019-01-03T10:28:19.253Z,0.7
2019-01-03T10:30:18.857Z,0.9
2019-01-03T10:32:18.436Z,0.4
2019-01-03T10:34:19.024Z,0.4
2019-01-03T10:36:24.208Z,0.6
2019-01-03T10:38:21.021Z,0.5
2019-01-03T10:40:19.122Z,0.4
2019-01-03T10:42:18.700Z,0.4
2019-01-03T10:44:19.282Z,0.4
2019-01-03T10:46:18.901Z,1
2019-01-03T10:48:18.480Z,0.2
2019-01-03T10:50:19.117Z,0.7
2019-01-03T10:52:18.702Z,0.6
2019-01-03T10:54:19.286Z,0.3
2019-01-03T10:56:18.983Z,3.1
2019-01-03T10:58:18.587Z,0.4
2019-01-03T11:00:19.204Z,0.2
2019-01-03T11:02:18.782Z,0.5
2019-01-03T11:04:19.371Z,0.9
2019-01-03T11:06:19.013Z,0.3
2019-01-03T11:08:18.598Z,0.7
2019-01-03T11:10:18.592Z,1
2019-01-03T11:12:19.176Z,0.6
2019-01-03T11:14:18.764Z,0.4
2019-01-03T11:16:18.871Z,0.6
2019-01-03T11:18:18.500Z,0.7
2019-01-03T11:20:19.098Z,0.9
2019-01-03T11:22:18.667Z,0.8
2019-01-03T11:24:19.243Z,0.7
2019-01-03T11:26:19.351Z,0.6
2019-01-03T11:28:18.929Z,0.5
2019-01-03T11:30:18.535Z,0.4
2019-01-03T11:32:19.121Z,0.8
2019-01-03T11:34:18.707Z,0.8
2019-01-03T11:36:18.831Z,0.6
2019-01-03T11:38:18.414Z,0.4
2019-01-03T11:40:18.425Z,1.1
2019-01-03T11:42:19.012Z,0.9
2019-01-03T11:44:18.597Z,0.9
2019-01-03T11:46:18.697Z,1.5
2019-01-03T11:48:19.272Z,0.6
2019-01-03T11:50:18.877Z,0.4
2019-01-03T11:52:18.455Z,0.6
2019-01-03T11:54:19.036Z,0.9
2019-01-03T11:56:19.168Z,0.6
2019-01-03T11:58:18.761Z,0.6
2019-01-03T12:00:19.365Z,0.5
2019-01-03T12:02:18.969Z,0.4
2019-01-03T12:04:18.559Z,0.7
2019-01-03T12:06:18.667Z,0.5
2019-01-03T12:08:19.246Z,0.5
2019-01-03T12:10:19.248Z,0.7
2019-01-03T12:12:18.827Z,0.6
2019-01-03T12:14:18.411Z,0.6
2019-01-03T12:16:18.506Z,0.7
2019-01-03T12:18:19.136Z,0.6
2019-01-03T12:20:18.736Z,0.7
2019-01-03T12:22:19.312Z,1
2019-01-03T12:24:18.892Z,0.4
2019-01-03T12:26:19.043Z,0.5
2019-01-03T12:28:18.623Z,0.6
2019-01-03T12:30:19.227Z,0.5
2019-01-03T12:32:18.809Z,0.6
2019-01-03T12:34:18.395Z,1.7
2019-01-03T12:36:18.495Z,0.7
2019-01-03T12:38:19.071Z,0.9
2019-01-03T12:40:19.070Z,0.7
2019-01-03T12:42:18.662Z,0.4
2019-01-03T12:44:19.240Z,0.6
2019-01-03T12:46:19.365Z,0.8
2019-01-03T12:48:18.947Z,0.9
2019-01-03T12:50:18.554Z,1
2019-01-03T12:52:19.140Z,0.6
2019-01-03T12:54:18.730Z,0.9
2019-01-03T12:56:19.374Z,0.7
2019-01-03T12:58:18.960Z,0.8
2019-01-03T13:00:18.576Z,0.4
2019-01-03T13:02:19.153Z,0.5
2019-01-03T13:04:18.734Z,0.9
2019-01-03T13:06:21.050Z,0.8
2019-01-03T13:08:18.794Z,0.7
2019-01-03T13:10:18.796Z,0.8
2019-01-03T13:12:18.371Z,0.5
2019-01-03T13:14:18.945Z,0.5
2019-01-03T13:16:19.050Z,0.6
2019-01-03T13:18:18.681Z,0.8
2019-01-03T13:20:19.285Z,0.7
2019-01-03T13:22:18.867Z,0.5
2019-01-03T13:24:18.448Z,1
2019-01-03T13:26:18.542Z,0.3
2019-01-03T13:28:19.116Z,0.7
2019-01-03T13:30:18.725Z,0.6
2019-01-03T13:32:19.299Z,0.9
2019-01-03T13:34:18.869Z,0.9
2019-01-03T13:36:18.966Z,0.7
2019-01-03T13:38:18.541Z,0.9
2019-01-03T13:40:18.527Z,0.7
2019-01-03T13:42:19.107Z,0.7
2019-01-03T13:44:18.680Z,0.7
2019-01-03T13:46:18.780Z,0.9
2019-01-03T13:48:19.364Z,0.8
2019-01-03T13:50:18.981Z,0.7
2019-01-03T13:52:18.569Z,0.7
2019-01-03T13:54:19.141Z,0.8
2019-01-03T13:56:19.268Z,0.8
2019-01-03T13:58:18.846Z,0.6
2019-01-03T14:00:18.446Z,1
2019-01-03T14:02:19.027Z,0.8
2019-01-03T14:04:18.600Z,0.6
2019-01-03T14:06:18.721Z,1
2019-01-03T14:08:19.297Z,0.6
2019-01-03T14:10:19.326Z,0.6
2019-01-03T14:12:18.919Z,0.9
2019-01-03T14:14:18.500Z,0.7
2019-01-03T14:16:18.613Z,0.6
2019-01-03T14:18:19.255Z,0.8
2019-01-03T14:20:18.878Z,0.8
2019-01-03T14:22:18.459Z,1.4
2019-01-03T14:24:19.040Z,0.9
2019-01-03T14:26:19.208Z,0.7
2019-01-03T14:28:18.784Z,1.4
2019-01-03T14:30:19.395Z,0.7
2019-01-03T14:32:18.984Z,0.6
2019-01-03T14:34:18.554Z,1.1
2019-01-03T14:36:18.646Z,0.8
2019-01-03T14:38:19.233Z,0.8
2019-01-03T14:40:19.235Z,1.1
2019-01-03T14:42:18.816Z,0.8
2019-01-03T14:44:18.395Z,1.2
2019-01-03T14:46:19.024Z,0.8
2019-01-03T14:48:18.614Z,0.7
2019-01-03T14:50:19.213Z,0.3
2019-01-03T14:52:18.781Z,1.7
2019-01-03T14:54:19.371Z,0.7
2019-01-03T14:56:18.534Z,0.8
2019-01-03T14:58:19.126Z,1.1
2019-01-03T15:00:18.735Z,0.9
2019-01-03T15:02:19.315Z,0.9
2019-01-03T15:04:18.916Z,0.8
2019-01-03T15:06:18.553Z,0.9
2019-01-03T15:08:19.134Z,1.1
2019-01-03T15:10:19.139Z,0.9
2019-01-03T15:12:18.713Z,0.8
2019-01-03T15:14:19.290Z,1.4
2019-01-03T15:16:18.923Z,1.2
2019-01-03T15:18:18.572Z,1.3
2019-01-03T15:20:19.184Z,1.1
2019-01-03T15:22:18.776Z,1
2019-01-03T15:24:19.356Z,1.2
2019-01-03T15:26:18.476Z,0.9
2019-01-03T15:28:19.060Z,1.5
2019-01-03T15:30:18.675Z,1.6
2019-01-03T15:32:19.249Z,1.3
2019-01-03T15:34:18.826Z,1
2019-01-03T15:36:18.929Z,1.8
2019-01-03T15:38:18.517Z,0.9
2019-01-03T15:40:18.536Z,1
2019-01-03T15:42:19.110Z,1.4
2019-01-03T15:44:18.691Z,0.7
2019-01-03T15:46:18.795Z,1.3
2019-01-03T15:48:18.375Z,1.3
2019-01-03T15:50:19.023Z,1.3
2019-01-03T15:52:18.601Z,1.9
2019-01-03T15:54:19.181Z,3.4
2019-01-03T15:56:19.295Z,2.4
2019-01-03T15:58:18.867Z,2.1
2019-01-03T16:00:18.477Z,1.1
2019-01-03T16:02:19.056Z,1.9
2019-01-03T16:04:18.631Z,1.7
2019-01-03T16:06:18.763Z,1.7
2019-01-03T16:08:19.353Z,1.8
2019-01-03T16:10:19.356Z,2.2
2019-01-03T16:12:18.940Z,3.5
2019-01-03T16:14:18.513Z,2.2
2019-01-03T16:16:19.226Z,1.3
2019-01-03T16:18:18.857Z,1.7
2019-01-03T16:20:18.467Z,1.6
2019-01-03T16:22:19.079Z,1.4
2019-01-03T16:24:18.654Z,1.4
2019-01-03T16:26:18.752Z,1
2019-01-03T16:28:19.332Z,2.4
2019-01-03T16:30:18.942Z,1.6
2019-01-03T16:32:18.530Z,2.8
2019-01-03T16:34:19.106Z,2.3
2019-01-03T16:36:19.225Z,2.1
2019-01-03T16:38:18.809Z,1.3
2019-01-03T16:40:18.817Z,1.4
2019-01-03T16:42:18.393Z,1.5
2019-01-03T16:44:18.970Z,0.9
2019-01-03T16:46:19.050Z,1.6
2019-01-03T16:48:18.630Z,2.1
2019-01-03T16:50:19.259Z,1.6
2019-01-03T16:52:18.851Z,1.6
2019-01-03T16:54:18.422Z,1.3
2019-01-03T16:56:18.521Z,1.4
2019-01-03T16:58:19.093Z,1.4
2019-01-03T17:00:18.689Z,1.6
2019-01-03T17:02:19.268Z,1.7
2019-01-03T17:04:18.840Z,1.5
2019-01-03T17:06:18.929Z,1.8
2019-01-03T17:08:18.511Z,2.5
2019-01-03T17:10:18.538Z,1.7
2019-01-03T17:12:19.121Z,1.1
2019-01-03T17:14:18.694Z,1.4
2019-01-03T17:16:18.796Z,2
2019-01-03T17:18:18.422Z,1.6
2019-01-03T17:20:19.010Z,1
2019-01-03T17:22:18.583Z,1.4
2019-01-03T17:24:19.172Z,1
2019-01-03T17:26:19.260Z,1.4
2019-01-03T17:28:18.840Z,1.3
2019-01-03T17:30:18.439Z,1.5
2019-01-03T17:32:19.010Z,1
2019-01-03T17:34:18.585Z,1.5
2019-01-03T17:36:18.675Z,1.1
2019-01-03T17:38:19.252Z,1.5
2019-01-03T17:40:19.283Z,1.6
2019-01-03T17:42:18.856Z,2.1
2019-01-03T17:44:18.441Z,1.2
2019-01-03T17:46:18.535Z,1.7
2019-01-03T17:48:19.120Z,2.9
2019-01-03T17:50:18.727Z,2.3
2019-01-03T17:52:19.300Z,3.4
2019-01-03T17:54:18.909Z,2
2019-01-03T17:56:19.082Z,2
2019-01-03T17:58:18.666Z,2.7
2019-01-03T18:00:19.273Z,4.5
2019-01-03T18:02:18.847Z,5.3
2019-01-03T18:04:18.421Z,1.4
2019-01-03T18:06:18.938Z,3.6
2019-01-03T18:08:18.509Z,2.5
2019-01-03T18:10:18.498Z,4.5
2019-01-03T18:12:19.083Z,3.6
2019-01-03T18:14:18.651Z,2.1
2019-01-03T18:16:18.749Z,4.5
2019-01-03T18:18:18.388Z,2.4
2019-01-03T18:20:18.990Z,2.1
2019-01-03T18:22:18.589Z,2.1
2019-01-03T18:24:19.175Z,1.6
2019-01-03T18:26:19.276Z,1.4
2019-01-03T18:28:18.861Z,1.7
2019-01-03T18:30:18.470Z,1.3
2019-01-03T18:32:19.041Z,1.4
2019-01-03T18:34:18.616Z,0.9
2019-01-03T18:36:19.359Z,1.5
2019-01-03T18:38:18.928Z,1
2019-01-03T18:40:18.907Z,1.3
2019-01-03T18:42:18.483Z,1.1
2019-01-03T18:44:19.071Z,1.3
2019-01-03T18:46:19.172Z,1.3
2019-01-03T18:48:18.752Z,1.7
2019-01-03T18:50:19.376Z,1.2
2019-01-03T18:52:18.990Z,1.4
2019-01-03T18:54:18.569Z,1.3
2019-01-03T18:56:18.657Z,0.9
2019-01-03T18:58:19.230Z,1
2019-01-03T19:00:18.830Z,1.5
2019-01-03T19:02:18.400Z,1.5
2019-01-03T19:04:18.987Z,1.3
2019-01-03T19:06:19.090Z,1.9
2019-01-03T19:08:18.667Z,1.6
2019-01-03T19:10:18.668Z,1.3
2019-01-03T19:12:19.253Z,1.2
2019-01-03T19:14:18.834Z,1.5
2019-01-03T19:16:18.937Z,1.3
2019-01-03T19:18:18.573Z,1.8
2019-01-03T19:20:19.194Z,1.6
2019-01-03T19:22:18.789Z,1.5
2019-01-03T19:24:19.368Z,1.4
2019-01-03T19:26:18.474Z,1.3
2019-01-03T19:28:19.063Z,1.8
2019-01-03T19:30:18.661Z,2.5
2019-01-03T19:32:19.250Z,1.2
2019-01-03T19:34:18.819Z,1.9
2019-01-03T19:36:18.422Z,1.8
2019-01-03T19:38:19.002Z,2.5
2019-01-03T19:40:19.003Z,1.2
2019-01-03T19:42:18.585Z,1.3
2019-01-03T19:44:19.162Z,1.3
2019-01-03T19:46:19.267Z,1.7
2019-01-03T19:48:18.856Z,2.7
2019-01-03T19:50:18.479Z,2.2
2019-01-03T19:52:19.058Z,2.3
2019-01-03T19:54:18.641Z,2.1
2019-01-03T19:56:18.737Z,2.6
2019-01-03T19:58:19.323Z,1.9
2019-01-03T20:00:18.928Z,2.3
2019-01-03T20:02:18.503Z,1.6
2019-01-03T20:04:19.092Z,1.9
2019-01-03T20:06:18.738Z,2
2019-01-03T20:08:19.306Z,2.2
2019-01-03T20:10:19.287Z,1.4
2019-01-03T20:12:18.863Z,1.1
2019-01-03T20:14:18.441Z,2.8
2019-01-03T20:16:18.532Z,1.4
2019-01-03T20:18:19.154Z,1.8
2019-01-03T20:20:18.753Z,1.6
2019-01-03T20:22:19.334Z,2.2
2019-01-03T20:24:18.911Z,1.9
2019-01-03T20:26:19.096Z,1.5
2019-01-03T20:28:18.676Z,1.7
2019-01-03T20:30:19.270Z,2.1
2019-01-03T20:32:18.842Z,1.7
2019-01-03T20:34:18.422Z,2.1
2019-01-03T20:36:18.633Z,1.4
2019-01-03T20:38:19.199Z,1.7
2019-01-03T20:40:19.212Z,1.1
2019-01-03T20:42:18.784Z,1.9
2019-01-03T20:44:19.358Z,2.2
2019-01-03T20:46:18.507Z,1.6
2019-01-03T20:48:19.086Z,1.4
2019-01-03T20:50:18.692Z,2.2
2019-01-03T20:52:19.263Z,2.5
2019-01-03T20:54:18.836Z,1.9
2019-01-03T20:56:18.933Z,2.3
2019-01-03T20:58:18.510Z,1.3
2019-01-03T21:00:19.103Z,2.1
2019-01-03T21:02:18.673Z,1.7
2019-01-03T21:04:19.268Z,1.8
2019-01-03T21:06:18.453Z,1.3
2019-01-03T21:08:19.024Z,1.7
2019-01-03T21:10:19.021Z,2.2
2019-01-03T21:12:18.596Z,2
2019-01-03T21:14:19.162Z,2.3
2019-01-03T21:16:19.268Z,2.7
2019-01-03T21:18:18.890Z,3.1
2019-01-03T21:20:18.499Z,1.9
2019-01-03T21:22:19.078Z,1.9
2019-01-03T21:24:18.649Z,2.2
2019-01-03T21:26:18.743Z,2.2
2019-01-03T21:28:19.313Z,1.5
2019-01-03T21:30:18.906Z,2.2
2019-01-03T21:32:18.484Z,1.8
2019-01-03T21:34:19.053Z,1.7
2019-01-03T21:36:19.150Z,1.4
2019-01-03T21:38:18.738Z,1.3
2019-01-03T21:40:18.737Z,1.4
2019-01-03T21:42:19.318Z,1.5
2019-01-03T21:44:18.890Z,1.2
2019-01-03T21:46:19.005Z,1.6
2019-01-03T21:48:18.580Z,2.7
2019-01-03T21:50:19.175Z,1.5
2019-01-03T21:52:18.740Z,1.7
2019-01-03T21:54:19.321Z,1.6
2019-01-03T21:56:18.425Z,2.1
2019-01-03T21:58:18.998Z,1.1
2019-01-03T22:00:18.596Z,1.4
2019-01-03T22:02:19.175Z,1.9
2019-01-03T22:04:18.743Z,2
2019-01-03T22:06:18.881Z,1.1
2019-01-03T22:08:18.461Z,1.6
2019-01-03T22:10:18.455Z,1.3
2019-01-03T22:12:19.030Z,1.4
2019-01-03T22:14:18.598Z,2.2
2019-01-03T22:16:18.878Z,1.5
2019-01-03T22:18:18.500Z,1.4
2019-01-03T22:20:19.091Z,2.5
2019-01-03T22:22:18.663Z,2
2019-01-03T22:24:19.232Z,2.5
2019-01-03T22:26:18.391Z,2.6
2019-01-03T22:28:19.033Z,1.2
2019-01-03T22:30:18.689Z,2.2
2019-01-03T22:32:19.259Z,1.2
2019-01-03T22:34:18.839Z,1.2
2019-01-03T22:36:18.473Z,1.6
2019-01-03T22:38:19.157Z,1.7
2019-01-03T22:40:19.150Z,1.9
2019-01-03T22:42:18.733Z,1.7
2019-01-03T22:44:19.303Z,1.9
2019-01-03T22:46:18.414Z,1.7
2019-01-03T22:48:18.990Z,1.3
2019-01-03T22:50:18.584Z,2.4
2019-01-03T22:52:19.154Z,1.6
2019-01-03T22:54:18.739Z,1.4
2019-01-03T22:56:18.843Z,1.5
2019-01-03T22:58:18.495Z,1.6
2019-01-03T23:00:19.104Z,1.8
2019-01-03T23:02:18.677Z,2.2
2019-01-03T23:04:19.251Z,1.3
2019-01-03T23:06:19.351Z,1.1
2019-01-03T23:08:18.931Z,1.2
2019-01-03T23:10:18.926Z,1.6
2019-01-03T23:12:18.512Z,2
2019-01-03T23:14:19.080Z,1.6
2019-01-03T23:16:19.218Z,1.2
2019-01-03T23:18:18.841Z,1.1
2019-01-03T23:20:18.454Z,1
2019-01-03T23:22:19.028Z,1.6
2019-01-03T23:24:18.596Z,1.3
2019-01-03T23:26:18.688Z,1.3
2019-01-03T23:28:19.287Z,1.4
2019-01-03T23:30:18.902Z,1.5
2019-01-03T23:32:18.480Z,0.9
2019-01-03T23:34:19.064Z,0.8
2019-01-03T23:36:19.161Z,1.6
2019-01-03T23:38:18.735Z,1.9
2019-01-03T23:40:18.729Z,1.6
2019-01-03T23:42:19.310Z,1.8
2019-01-03T23:44:18.904Z,1.7
2019-01-03T23:46:19.020Z,1.5
2019-01-03T23:48:18.609Z,1.3
2019-01-03T23:50:19.205Z,1.6
2019-01-03T23:52:18.775Z,1
2019-01-03T23:54:19.358Z,0.7
2019-01-03T23:56:18.459Z,1.2
2019-01-03T23:58:19.042Z,1.3
